createdAt,value
2017-06-08T00:00:22.541Z,12.94
2017-06-08T00:01:23.261Z,12.95
2017-06-08T00:02:24.281Z,12.86
2017-06-08T00:03:25.001Z,12.83
2017-06-08T00:04:25.723Z,12.82
2017-06-08T00:05:26.448Z,12.78
2017-06-08T00:06:27.195Z,12.85
2017-06-08T00:07:28.167Z,12.86
2017-06-08T00:08:28.889Z,12.85
2017-06-08T00:09:29.631Z,12.86
2017-06-08T00:10:30.354Z,12.86
2017-06-08T00:11:31.075Z,12.82
2017-06-08T00:12:32.043Z,12.82
2017-06-08T00:13:32.765Z,12.85
2017-06-08T00:14:33.486Z,12.83
2017-06-08T00:15:34.208Z,12.94
2017-06-08T00:16:34.931Z,12.85
2017-06-08T00:17:35.905Z,12.95
2017-06-08T00:18:36.628Z,12.95
2017-06-08T00:19:37.351Z,12.94
2017-06-08T00:20:38.072Z,12.90
2017-06-08T00:21:38.792Z,12.91
2017-06-08T00:22:39.766Z,12.93
2017-06-08T00:23:40.485Z,12.94
2017-06-08T00:24:41.207Z,12.91
2017-06-08T00:25:41.928Z,12.93
2017-06-08T00:26:42.649Z,13.03
2017-06-08T00:27:43.648Z,13.03
2017-06-08T00:28:44.366Z,13.05
2017-06-08T00:29:45.086Z,13.03
2017-06-08T00:30:45.806Z,12.87
2017-06-08T00:31:46.526Z,12.97
2017-06-08T00:32:47.500Z,12.94
2017-06-08T00:33:48.220Z,12.91
2017-06-08T00:34:48.944Z,13.03
2017-06-08T00:35:49.666Z,12.97
2017-06-08T00:36:50.390Z,12.94
2017-06-08T00:37:51.365Z,12.90
2017-06-08T00:38:52.085Z,12.97
2017-06-08T00:39:52.807Z,12.82
2017-06-08T00:41:54.152Z,12.93
2017-06-08T00:42:55.121Z,12.94
2017-06-08T00:43:55.843Z,12.90
2017-06-08T00:44:56.561Z,13.01
2017-06-08T00:45:57.303Z,13.03
2017-06-08T00:46:58.020Z,13.09
2017-06-08T00:47:59.064Z,12.94
2017-06-08T00:48:59.787Z,13.04
2017-06-08T00:50:00.508Z,12.98
2017-06-08T00:51:01.228Z,12.97
2017-06-08T00:52:01.952Z,13.03
2017-06-08T00:53:02.922Z,13.04
2017-06-08T00:54:03.642Z,13.08
2017-06-08T00:55:04.359Z,13.16
2017-06-08T00:56:05.086Z,13.16
2017-06-08T00:57:05.799Z,13.18
2017-06-08T00:58:06.769Z,13.13
2017-06-08T00:59:07.514Z,13.19
2017-06-08T01:00:08.257Z,13.13
2017-06-08T01:01:08.975Z,13.15
2017-06-08T01:02:09.695Z,13.16
2017-06-08T01:03:10.667Z,13.15
2017-06-08T01:04:11.391Z,13.13
2017-06-08T01:05:12.107Z,13.22
2017-06-08T01:06:12.829Z,13.23
2017-06-08T01:07:13.547Z,13.13
2017-06-08T01:08:14.520Z,13.11
2017-06-08T01:09:15.257Z,13.18
2017-06-08T01:10:16.007Z,13.15
2017-06-08T01:11:16.725Z,13.16
2017-06-08T01:12:17.444Z,13.16
2017-06-08T01:13:18.423Z,13.23
2017-06-08T01:14:19.141Z,13.18
2017-06-08T01:15:19.861Z,13.18
2017-06-08T01:16:20.581Z,13.15
2017-06-08T01:17:21.301Z,13.13
2017-06-08T01:18:22.270Z,13.13
2017-06-08T01:19:22.994Z,13.12
2017-06-08T01:20:23.738Z,13.12
2017-06-08T01:21:24.460Z,13.18
2017-06-08T01:22:25.179Z,13.12
2017-06-08T01:23:26.150Z,13.15
2017-06-08T01:24:26.872Z,13.16
2017-06-08T01:25:27.589Z,13.12
2017-06-08T01:26:28.311Z,13.15
2017-06-08T01:27:29.034Z,13.15
2017-06-08T01:28:30.003Z,13.01
2017-06-08T01:29:30.725Z,13.00
2017-06-08T01:30:31.444Z,13.03
2017-06-08T01:31:32.164Z,13.04
2017-06-08T01:32:32.885Z,13.03
2017-06-08T01:33:33.860Z,13.04
2017-06-08T01:34:34.583Z,13.00
2017-06-08T01:35:35.302Z,12.95
2017-06-08T01:36:36.024Z,13.09
2017-06-08T01:37:36.747Z,12.87
2017-06-08T01:38:37.719Z,13.11
2017-06-08T01:39:38.459Z,13.03
2017-06-08T01:40:39.178Z,12.93
2017-06-08T01:41:39.897Z,13.00
2017-06-08T01:42:40.640Z,12.91
2017-06-08T01:43:41.610Z,12.91
2017-06-08T01:44:42.332Z,12.93
2017-06-08T01:45:43.051Z,12.97
2017-06-08T01:46:43.794Z,12.80
2017-06-08T01:47:44.516Z,12.80
2017-06-08T01:48:45.485Z,12.95
2017-06-08T01:49:46.205Z,12.87
2017-06-08T01:50:46.928Z,12.95
2017-06-08T01:51:47.647Z,13.00
2017-06-08T01:52:48.369Z,13.01
2017-06-08T01:53:49.386Z,12.94
2017-06-08T01:54:50.106Z,13.01
2017-06-08T01:55:50.827Z,13.05
2017-06-08T01:56:51.547Z,12.91
2017-06-08T01:57:52.292Z,13.09
2017-06-08T01:58:53.263Z,13.03
2017-06-08T01:59:53.984Z,13.08
2017-06-08T02:00:54.702Z,13.04
2017-06-08T02:01:55.426Z,13.00
2017-06-08T02:02:56.145Z,13.01
2017-06-08T02:03:57.115Z,13.03
2017-06-08T02:04:57.835Z,13.01
2017-06-08T02:05:58.554Z,12.98
2017-06-08T02:06:59.274Z,13.03
2017-06-08T02:07:59.997Z,13.08
2017-06-08T02:09:00.967Z,13.12
2017-06-08T02:10:01.684Z,13.08
2017-06-08T02:11:02.404Z,13.18
2017-06-08T02:12:03.126Z,13.12
2017-06-08T02:13:03.845Z,13.13
2017-06-08T02:14:04.816Z,13.16
2017-06-08T02:15:05.541Z,13.18
2017-06-08T02:16:06.260Z,13.16
2017-06-08T02:17:06.982Z,13.25
2017-06-08T02:18:07.701Z,13.33
2017-06-08T02:19:08.676Z,13.19
2017-06-08T02:20:09.397Z,13.23
2017-06-08T02:21:10.138Z,13.19
2017-06-08T02:22:10.857Z,13.27
2017-06-08T02:23:11.576Z,13.28
2017-06-08T02:24:12.547Z,13.33
2017-06-08T02:25:13.269Z,13.25
2017-06-08T02:26:13.990Z,13.30
2017-06-08T02:27:14.712Z,13.27
2017-06-08T02:28:15.433Z,13.30
2017-06-08T02:29:16.454Z,13.35
2017-06-08T02:30:17.179Z,13.33
2017-06-08T02:31:17.895Z,13.22
2017-06-08T02:32:18.615Z,13.33
2017-06-08T02:33:19.337Z,13.31
2017-06-08T02:34:20.309Z,13.33
2017-06-08T02:35:21.029Z,13.25
2017-06-08T02:36:21.748Z,13.39
2017-06-08T02:37:22.471Z,13.33
2017-06-08T02:38:23.190Z,13.31
2017-06-08T02:39:24.164Z,13.37
2017-06-08T02:40:24.883Z,13.31
2017-06-08T02:41:25.601Z,13.35
2017-06-08T02:42:26.322Z,13.41
2017-06-08T02:43:27.041Z,13.23
2017-06-08T02:44:28.012Z,13.35
2017-06-08T02:45:28.732Z,13.31
2017-06-08T02:46:29.452Z,13.30
2017-06-08T02:47:30.172Z,13.27
2017-06-08T02:48:30.914Z,13.28
2017-06-08T02:49:31.888Z,13.31
2017-06-08T02:50:32.608Z,13.31
2017-06-08T02:51:33.332Z,13.33
2017-06-08T02:52:34.077Z,13.25
2017-06-08T02:53:34.799Z,13.38
2017-06-08T02:54:35.772Z,13.31
2017-06-08T02:55:36.494Z,13.27
2017-06-08T02:56:37.218Z,13.37
2017-06-08T02:57:37.937Z,13.37
2017-06-08T02:58:38.657Z,13.33
2017-06-08T02:59:39.628Z,13.37
2017-06-08T03:00:40.347Z,13.31
2017-06-08T03:01:41.073Z,13.35
2017-06-08T03:02:41.795Z,13.37
2017-06-08T03:03:42.519Z,13.35
2017-06-08T03:04:43.489Z,13.38
2017-06-08T03:05:44.211Z,13.50
2017-06-08T03:06:44.936Z,13.42
2017-06-08T03:07:45.657Z,13.46
2017-06-08T03:08:46.379Z,13.50
2017-06-08T03:09:47.351Z,13.44
2017-06-08T03:10:48.076Z,13.50
2017-06-08T03:11:48.798Z,13.46
2017-06-08T03:12:49.521Z,13.52
2017-06-08T03:13:50.242Z,13.46
2017-06-08T03:14:51.215Z,13.46
2017-06-08T03:15:51.934Z,13.49
2017-06-08T03:16:52.661Z,13.49
2017-06-08T03:17:53.380Z,13.53
2017-06-08T03:18:54.103Z,13.65
2017-06-08T03:19:55.076Z,13.54
2017-06-08T03:20:55.799Z,13.56
2017-06-08T03:21:56.521Z,13.68
2017-06-08T03:22:57.246Z,13.54
2017-06-08T03:23:57.966Z,13.59
2017-06-08T03:24:58.938Z,13.65
2017-06-08T03:25:59.661Z,13.60
2017-06-08T03:27:00.383Z,13.59
2017-06-08T03:28:01.107Z,13.65
2017-06-08T03:29:01.833Z,13.60
2017-06-08T03:30:02.857Z,13.60
2017-06-08T03:31:03.580Z,13.70
2017-06-08T03:32:04.306Z,13.63
2017-06-08T03:33:05.029Z,13.67
2017-06-08T03:34:05.755Z,13.74
2017-06-08T03:35:06.725Z,13.67
2017-06-08T03:36:07.448Z,13.62
2017-06-08T03:37:08.172Z,13.70
2017-06-08T03:38:08.896Z,13.67
2017-06-08T03:39:09.623Z,13.74
2017-06-08T03:40:10.598Z,13.70
2017-06-08T03:41:11.318Z,13.77
2017-06-08T03:42:12.045Z,13.71
2017-06-08T03:43:12.766Z,13.74
2017-06-08T03:44:13.494Z,13.77
2017-06-08T03:45:14.467Z,13.77
2017-06-08T03:46:15.198Z,13.77
2017-06-08T03:47:15.917Z,13.86
2017-06-08T03:48:16.640Z,13.78
2017-06-08T03:49:17.362Z,13.87
2017-06-08T03:50:18.340Z,13.79
2017-06-08T03:51:19.063Z,13.86
2017-06-08T03:52:19.787Z,13.77
2017-06-08T03:53:20.510Z,13.78
2017-06-08T03:54:21.238Z,13.83
2017-06-08T03:55:22.217Z,13.83
2017-06-08T03:56:22.935Z,13.81
2017-06-08T03:57:23.658Z,13.86
2017-06-08T03:58:24.384Z,13.86
2017-06-08T03:59:25.110Z,13.78
2017-06-08T04:00:26.106Z,13.79
2017-06-08T04:01:26.830Z,13.85
2017-06-08T04:02:27.555Z,13.81
2017-06-08T04:03:28.283Z,13.79
2017-06-08T04:04:29.007Z,13.79
2017-06-08T04:05:29.981Z,13.78
2017-06-08T04:06:30.703Z,13.79
2017-06-08T04:07:31.427Z,13.78
2017-06-08T04:08:32.154Z,13.75
2017-06-08T04:09:32.879Z,13.74
2017-06-08T04:10:33.881Z,13.75
2017-06-08T04:11:34.602Z,13.72
2017-06-08T04:12:35.326Z,13.68
2017-06-08T04:13:36.052Z,13.60
2017-06-08T04:14:36.775Z,13.62
2017-06-08T04:15:37.748Z,13.56
2017-06-08T04:16:38.471Z,13.54
2017-06-08T04:17:39.197Z,13.63
2017-06-08T04:18:39.921Z,13.54
2017-06-08T04:19:40.678Z,13.47
2017-06-08T04:20:41.647Z,13.52
2017-06-08T04:21:42.369Z,13.50
2017-06-08T04:22:43.095Z,13.49
2017-06-08T04:23:43.820Z,13.46
2017-06-08T04:24:44.541Z,13.39
2017-06-08T04:25:45.518Z,13.30
2017-06-08T04:26:46.243Z,13.19
2017-06-08T04:27:46.969Z,13.16
2017-06-08T04:28:47.691Z,13.27
2017-06-08T04:29:48.413Z,13.23
2017-06-08T04:30:49.392Z,13.15
2017-06-08T04:31:50.114Z,13.12
2017-06-08T04:32:50.837Z,13.15
2017-06-08T04:33:51.563Z,13.11
2017-06-08T04:34:52.284Z,13.04
2017-06-08T04:35:53.261Z,13.00
2017-06-08T04:36:53.982Z,13.00
2017-06-08T04:37:54.706Z,12.93
2017-06-08T04:38:55.431Z,12.90
2017-06-08T04:39:56.156Z,12.91
2017-06-08T04:40:57.128Z,12.97
2017-06-08T04:41:57.853Z,12.93
2017-06-08T04:42:58.577Z,12.80
2017-06-08T04:43:59.299Z,12.80
2017-06-08T04:45:00.021Z,12.79
2017-06-08T04:46:00.996Z,12.78
2017-06-08T04:47:01.721Z,12.76
2017-06-08T04:48:02.442Z,12.78
2017-06-08T04:49:03.170Z,12.70
2017-06-08T04:50:03.895Z,12.73
2017-06-08T04:51:04.868Z,12.76
2017-06-08T04:52:05.591Z,12.70
2017-06-08T04:53:06.316Z,12.68
2017-06-08T04:54:07.040Z,12.72
2017-06-08T04:55:07.763Z,12.61
2017-06-08T04:56:08.735Z,12.70
2017-06-08T04:57:09.459Z,12.57
2017-06-08T04:58:10.184Z,12.55
2017-06-08T04:59:10.909Z,12.58
2017-06-08T05:00:11.629Z,12.62
2017-06-08T05:01:12.605Z,12.64
2017-06-08T05:02:13.329Z,12.64
2017-06-08T05:03:14.057Z,12.60
2017-06-08T05:04:14.778Z,12.61
2017-06-08T05:05:15.504Z,12.60
2017-06-08T05:06:16.478Z,12.60
2017-06-08T05:07:17.202Z,12.62
2017-06-08T05:08:17.925Z,12.68
2017-06-08T05:09:18.653Z,12.64
2017-06-08T05:10:19.373Z,12.75
2017-06-08T05:11:20.399Z,12.67
2017-06-08T05:12:21.126Z,12.68
2017-06-08T05:13:21.849Z,12.61
2017-06-08T05:14:22.573Z,12.75
2017-06-08T05:15:23.294Z,12.75
2017-06-08T05:16:24.271Z,12.72
2017-06-08T05:17:24.994Z,12.79
2017-06-08T05:18:25.717Z,12.72
2017-06-08T05:19:26.445Z,12.73
2017-06-08T05:20:27.168Z,12.70
2017-06-08T05:21:28.140Z,12.78
2017-06-08T05:22:28.867Z,12.70
2017-06-08T05:23:29.617Z,12.67
2017-06-08T05:24:30.341Z,12.70
2017-06-08T05:25:31.070Z,12.72
2017-06-08T05:26:32.043Z,12.72
2017-06-08T05:27:32.769Z,12.73
2017-06-08T05:28:33.493Z,12.72
2017-06-08T05:29:34.217Z,12.75
2017-06-08T05:30:34.943Z,12.78
2017-06-08T05:31:35.917Z,12.82
2017-06-08T05:32:36.644Z,12.79
2017-06-08T05:33:37.368Z,12.86
2017-06-08T05:34:38.094Z,12.85
2017-06-08T05:35:38.841Z,12.87
2017-06-08T05:36:39.819Z,12.82
2017-06-08T05:37:40.542Z,12.82
2017-06-08T05:38:41.271Z,12.91
2017-06-08T05:39:41.991Z,12.94
2017-06-08T05:40:42.716Z,13.01
2017-06-08T05:41:43.690Z,12.94
2017-06-08T05:42:44.418Z,13.03
2017-06-08T05:43:45.144Z,13.12
2017-06-08T05:44:45.873Z,13.05
2017-06-08T05:45:46.603Z,13.20
2017-06-08T05:46:47.581Z,13.15
2017-06-08T05:47:48.306Z,13.12
2017-06-08T05:48:49.035Z,13.16
2017-06-08T05:49:49.762Z,13.12
2017-06-08T05:50:50.488Z,13.18
2017-06-08T05:51:51.464Z,13.18
2017-06-08T05:52:52.194Z,13.18
2017-06-08T05:53:52.922Z,13.16
2017-06-08T05:54:53.670Z,13.16
2017-06-08T05:55:54.420Z,13.25
2017-06-08T05:56:55.397Z,13.37
2017-06-08T05:57:56.127Z,13.28
2017-06-08T05:58:56.877Z,13.33
2017-06-08T05:59:57.605Z,13.46
2017-06-08T06:00:58.334Z,13.50
2017-06-08T06:01:59.310Z,13.37
2017-06-08T06:03:00.039Z,13.47
2017-06-08T06:04:00.788Z,13.57
2017-06-08T06:05:01.516Z,13.63
2017-06-08T06:06:02.246Z,13.62
2017-06-08T06:07:03.224Z,13.74
2017-06-08T06:08:03.948Z,13.81
2017-06-08T06:09:04.676Z,13.93
2017-06-08T06:10:05.404Z,14.00
2017-06-08T06:11:06.134Z,14.07
2017-06-08T06:12:07.110Z,14.14
2017-06-08T06:13:07.840Z,14.17
2017-06-08T06:14:08.565Z,14.11
2017-06-08T06:15:09.294Z,14.20
2017-06-08T06:16:10.023Z,14.26
2017-06-08T06:17:10.999Z,14.32
2017-06-08T06:18:11.727Z,14.40
2017-06-08T06:19:12.457Z,14.40
2017-06-08T06:20:13.189Z,14.44
2017-06-08T06:21:13.917Z,14.53
2017-06-08T06:22:14.899Z,14.63
2017-06-08T06:23:15.648Z,14.54
2017-06-08T06:24:16.378Z,14.58
2017-06-08T06:25:17.108Z,14.59
2017-06-08T06:26:17.836Z,14.62
2017-06-08T06:27:18.815Z,14.53
2017-06-08T06:28:19.545Z,14.58
2017-06-08T06:29:20.272Z,14.51
2017-06-08T06:30:21.003Z,14.36
2017-06-08T06:31:21.733Z,14.55
2017-06-08T06:32:22.758Z,14.51
2017-06-08T06:33:23.487Z,14.58
2017-06-08T06:34:24.214Z,14.60
2017-06-08T06:35:24.945Z,14.65
2017-06-08T06:36:25.673Z,14.70
2017-06-08T06:37:26.652Z,14.70
2017-06-08T06:38:27.385Z,14.78
2017-06-08T06:39:28.118Z,14.73
2017-06-08T06:40:28.846Z,14.88
2017-06-08T06:41:29.578Z,14.63
2017-06-08T06:42:30.559Z,14.82
2017-06-08T06:43:31.287Z,14.79
2017-06-08T06:44:32.016Z,14.72
2017-06-08T06:45:32.749Z,14.82
2017-06-08T06:46:33.478Z,14.79
2017-06-08T06:47:34.455Z,14.84
2017-06-08T06:48:35.189Z,14.82
2017-06-08T06:49:35.918Z,14.88
2017-06-08T06:50:36.646Z,14.86
2017-06-08T06:51:37.376Z,14.92
2017-06-08T06:52:38.354Z,14.92
2017-06-08T06:53:39.083Z,14.77
2017-06-08T06:54:39.814Z,14.85
2017-06-08T06:55:40.545Z,14.84
2017-06-08T06:56:41.275Z,14.88
2017-06-08T06:57:42.251Z,14.88
2017-06-08T06:58:42.984Z,14.97
2017-06-08T06:59:43.712Z,14.86
2017-06-08T07:00:44.441Z,14.78
2017-06-08T07:01:45.170Z,14.81
2017-06-08T07:02:46.149Z,14.81
2017-06-08T07:03:46.879Z,14.81
2017-06-08T07:04:47.630Z,14.85
2017-06-08T07:05:48.361Z,14.82
2017-06-08T07:06:49.094Z,14.94
2017-06-08T07:07:50.072Z,14.94
2017-06-08T07:08:50.799Z,15.09
2017-06-08T07:09:51.527Z,14.94
2017-06-08T07:10:52.255Z,15.02
2017-06-08T07:11:52.987Z,15.04
2017-06-08T07:12:53.966Z,15.09
2017-06-08T07:13:54.695Z,15.09
2017-06-08T07:14:55.428Z,15.09
2017-06-08T07:15:56.179Z,15.04
2017-06-08T07:16:56.931Z,15.04
2017-06-08T07:17:57.914Z,15.15
2017-06-08T07:18:58.643Z,15.15
2017-06-08T07:19:59.369Z,15.29
2017-06-08T07:21:00.117Z,15.14
2017-06-08T07:22:00.848Z,15.33
2017-06-08T07:23:01.828Z,15.24
2017-06-08T07:24:02.557Z,15.21
2017-06-08T07:25:03.288Z,15.28
2017-06-08T07:26:04.049Z,15.27
2017-06-08T07:27:04.775Z,15.33
2017-06-08T07:28:05.758Z,15.27
2017-06-08T07:29:06.488Z,15.29
2017-06-08T07:30:07.216Z,15.35
2017-06-08T07:31:07.946Z,15.39
2017-06-08T07:32:08.673Z,15.46
2017-06-08T07:33:09.705Z,15.52
2017-06-08T07:34:10.433Z,15.58
2017-06-08T07:35:11.164Z,15.59
2017-06-08T07:36:11.897Z,15.64
2017-06-08T07:37:12.625Z,15.62
2017-06-08T07:38:13.630Z,15.62
2017-06-08T07:39:14.358Z,15.59
2017-06-08T07:40:15.088Z,15.58
2017-06-08T07:41:15.817Z,15.49
2017-06-08T07:42:16.548Z,15.54
2017-06-08T07:43:17.527Z,15.58
2017-06-08T07:44:18.258Z,15.58
2017-06-08T07:45:18.983Z,15.72
2017-06-08T07:46:19.715Z,15.68
2017-06-08T07:47:20.447Z,15.62
2017-06-08T07:48:21.448Z,15.51
2017-06-08T07:49:22.202Z,15.55
2017-06-08T07:50:22.954Z,15.62
2017-06-08T07:51:23.689Z,15.67
2017-06-08T07:52:24.420Z,15.64
2017-06-08T07:53:25.396Z,15.62
2017-06-08T07:54:26.128Z,15.75
2017-06-08T07:55:26.860Z,15.76
2017-06-08T07:56:27.587Z,15.82
2017-06-08T07:57:28.316Z,15.84
2017-06-08T07:58:29.298Z,15.75
2017-06-08T07:59:30.029Z,15.61
2017-06-08T08:00:30.760Z,15.65
2017-06-08T08:01:31.489Z,15.76
2017-06-08T08:02:32.216Z,15.79
2017-06-08T08:03:33.198Z,15.90
2017-06-08T08:04:33.927Z,15.79
2017-06-08T08:05:34.657Z,15.75
2017-06-08T08:06:35.386Z,15.80
2017-06-08T08:07:36.137Z,15.88
2017-06-08T08:08:37.120Z,15.88
2017-06-08T08:09:37.849Z,15.95
2017-06-08T08:10:38.581Z,16.01
2017-06-08T08:11:39.314Z,16.05
2017-06-08T08:12:40.045Z,15.91
2017-06-08T08:13:41.025Z,15.90
2017-06-08T08:14:41.753Z,15.94
2017-06-08T08:15:42.490Z,16.04
2017-06-08T08:16:43.220Z,16.13
2017-06-08T08:17:43.956Z,16.24
2017-06-08T08:18:44.935Z,16.21
2017-06-08T08:19:45.663Z,16.32
2017-06-08T08:20:46.399Z,16.38
2017-06-08T08:21:47.130Z,16.35
2017-06-08T08:22:47.858Z,16.42
2017-06-08T08:23:48.890Z,16.42
2017-06-08T08:24:49.625Z,16.33
2017-06-08T08:25:50.353Z,16.56
2017-06-08T08:26:51.086Z,16.64
2017-06-08T08:27:51.820Z,16.64
2017-06-08T08:28:52.801Z,16.74
2017-06-08T08:29:53.536Z,16.71
2017-06-08T08:30:54.295Z,16.89
2017-06-08T08:31:55.024Z,16.72
2017-06-08T08:32:55.761Z,16.90
2017-06-08T08:33:56.742Z,17.01
2017-06-08T08:34:57.472Z,16.96
2017-06-08T08:35:58.206Z,17.14
2017-06-08T08:36:58.940Z,17.23
2017-06-08T08:37:59.672Z,17.29
2017-06-08T08:39:00.658Z,17.36
2017-06-08T08:40:01.394Z,17.52
2017-06-08T08:41:02.126Z,17.54
2017-06-08T08:42:02.861Z,17.64
2017-06-08T08:43:03.595Z,17.92
2017-06-08T08:44:04.583Z,18.03
2017-06-08T08:45:05.314Z,18.15
2017-06-08T08:46:06.052Z,18.20
2017-06-08T08:47:06.788Z,18.28
2017-06-08T08:48:07.525Z,18.50
2017-06-08T08:49:08.512Z,18.58
2017-06-08T08:50:09.277Z,18.59
2017-06-08T08:51:09.986Z,18.41
2017-06-08T08:52:10.720Z,18.28
2017-06-08T08:53:11.454Z,18.20
2017-06-08T08:54:12.438Z,18.31
2017-06-08T08:55:13.172Z,18.31
2017-06-08T08:56:13.907Z,18.44
2017-06-08T08:57:14.644Z,18.47
2017-06-08T08:58:15.378Z,18.80
2017-06-08T08:59:16.362Z,18.89
2017-06-08T09:00:17.100Z,18.93
2017-06-08T09:01:17.838Z,19.00
2017-06-08T09:02:18.593Z,18.66
2017-06-08T09:03:19.327Z,18.78
2017-06-08T09:04:20.315Z,18.81
2017-06-08T09:05:21.050Z,19.04
2017-06-08T09:06:21.785Z,18.93
2017-06-08T09:07:22.523Z,18.73
2017-06-08T09:08:23.262Z,18.92
2017-06-08T09:09:24.250Z,19.02
2017-06-08T09:10:24.985Z,19.16
2017-06-08T09:11:25.724Z,19.14
2017-06-08T09:12:26.460Z,19.16
2017-06-08T09:13:27.196Z,19.27
2017-06-08T09:14:28.186Z,19.14
2017-06-08T09:15:28.919Z,19.34
2017-06-08T09:16:29.655Z,19.47
2017-06-08T09:17:30.389Z,19.14
2017-06-08T09:18:31.130Z,19.15
2017-06-08T09:19:32.116Z,19.33
2017-06-08T09:20:32.852Z,19.59
2017-06-08T09:21:33.591Z,19.59
2017-06-08T09:22:34.328Z,19.70
2017-06-08T09:23:35.072Z,19.85
2017-06-08T09:24:36.060Z,20.00
2017-06-08T09:25:36.799Z,20.07
2017-06-08T09:26:37.545Z,19.94
2017-06-08T09:27:38.281Z,20.07
2017-06-08T09:28:39.018Z,20.09
2017-06-08T09:29:40.013Z,20.55
2017-06-08T09:30:40.756Z,20.59
2017-06-08T09:31:41.526Z,20.51
2017-06-08T09:32:42.268Z,20.72
2017-06-08T09:33:43.014Z,20.80
2017-06-08T09:34:44.056Z,20.81
2017-06-08T09:35:44.821Z,20.72
2017-06-08T09:36:45.565Z,20.67
2017-06-08T09:37:46.335Z,20.84
2017-06-08T09:38:47.078Z,20.74
2017-06-08T09:39:48.074Z,20.72
2017-06-08T09:40:48.811Z,20.85
2017-06-08T09:41:49.555Z,20.74
2017-06-08T09:42:50.299Z,20.69
2017-06-08T09:43:51.041Z,20.80
2017-06-08T09:44:52.033Z,20.84
2017-06-08T09:45:52.800Z,20.75
2017-06-08T09:46:53.546Z,20.90
2017-06-08T09:47:54.289Z,20.92
2017-06-08T09:48:55.033Z,20.92
2017-06-08T09:49:56.029Z,21.05
2017-06-08T09:50:56.773Z,20.90
2017-06-08T09:51:57.512Z,21.07
2017-06-08T09:52:58.259Z,20.43
2017-06-08T09:53:59.002Z,20.34
2017-06-08T09:54:59.996Z,20.44
2017-06-08T09:56:00.736Z,20.62
2017-06-08T09:57:01.479Z,20.66
2017-06-08T09:58:02.222Z,20.93
2017-06-08T09:59:02.960Z,21.17
2017-06-08T10:00:04.001Z,21.00
2017-06-08T10:01:04.742Z,21.14
2017-06-08T10:02:05.485Z,21.18
2017-06-08T10:03:06.251Z,21.17
2017-06-08T10:04:06.993Z,21.66
2017-06-08T10:05:07.983Z,21.87
2017-06-08T10:06:08.725Z,21.92
2017-06-08T10:07:09.516Z,21.87
2017-06-08T10:08:10.254Z,21.82
2017-06-08T10:09:11.016Z,22.04
2017-06-08T10:10:12.009Z,21.73
2017-06-08T10:11:12.749Z,21.70
2017-06-08T10:12:13.494Z,21.64
2017-06-08T10:13:14.289Z,21.66
2017-06-08T10:14:15.035Z,21.52
2017-06-08T10:15:16.123Z,21.52
2017-06-08T10:16:16.864Z,21.20
2017-06-08T10:17:17.607Z,21.02
2017-06-08T10:18:18.353Z,20.82
2017-06-08T10:19:19.088Z,21.05
2017-06-08T10:20:20.081Z,20.72
2017-06-08T10:21:20.819Z,20.81
2017-06-08T10:22:21.557Z,20.67
2017-06-08T10:23:22.415Z,20.66
2017-06-08T10:24:23.156Z,21.24
2017-06-08T10:25:24.199Z,20.97
2017-06-08T10:26:24.940Z,21.11
2017-06-08T10:27:25.680Z,21.40
2017-06-08T10:28:26.422Z,21.64
2017-06-08T10:29:27.163Z,21.57
2017-06-08T10:30:28.153Z,21.42
2017-06-08T10:31:28.894Z,21.37
2017-06-08T10:32:29.633Z,21.29
2017-06-08T10:33:30.372Z,21.54
2017-06-08T10:34:31.112Z,21.80
2017-06-08T10:35:32.105Z,21.67
2017-06-08T10:36:32.845Z,21.42
2017-06-08T10:37:33.579Z,21.57
2017-06-08T10:38:34.318Z,21.54
2017-06-08T10:39:35.061Z,21.35
2017-06-08T10:40:36.054Z,21.18
2017-06-08T10:41:36.795Z,21.32
2017-06-08T10:42:37.544Z,21.48
2017-06-08T10:43:38.286Z,21.72
2017-06-08T10:44:39.069Z,21.72
2017-06-08T10:45:40.172Z,21.66
2017-06-08T10:46:40.913Z,21.55
2017-06-08T10:47:41.653Z,22.02
2017-06-08T10:48:42.394Z,22.00
2017-06-08T10:49:43.135Z,21.80
2017-06-08T10:50:44.127Z,21.51
2017-06-08T10:51:44.867Z,21.09
2017-06-08T10:52:45.607Z,20.97
2017-06-08T10:53:46.345Z,20.84
2017-06-08T10:54:47.087Z,21.15
2017-06-08T10:55:48.080Z,21.03
2017-06-08T10:56:48.824Z,20.85
2017-06-08T10:57:49.565Z,20.81
2017-06-08T10:58:50.306Z,20.80
2017-06-08T10:59:51.049Z,20.87
2017-06-08T11:00:52.051Z,20.78
2017-06-08T11:01:52.794Z,20.85
2017-06-08T11:02:53.538Z,20.82
2017-06-08T11:03:54.301Z,20.81
2017-06-08T11:04:55.043Z,20.58
2017-06-08T11:05:56.034Z,20.32
2017-06-08T11:06:56.774Z,20.32
2017-06-08T11:07:57.560Z,20.40
2017-06-08T11:08:58.294Z,20.60
2017-06-08T11:09:59.033Z,20.85
2017-06-08T11:11:00.047Z,21.02
2017-06-08T11:12:00.786Z,21.15
2017-06-08T11:13:01.529Z,21.18
2017-06-08T11:14:02.270Z,21.32
2017-06-08T11:15:03.020Z,21.37
2017-06-08T11:16:04.009Z,21.42
2017-06-08T11:17:04.760Z,21.43
2017-06-08T11:18:05.497Z,21.09
2017-06-08T11:19:06.239Z,21.07
2017-06-08T11:20:06.978Z,20.65
2017-06-08T11:21:07.964Z,20.74
2017-06-08T11:22:08.734Z,20.60
2017-06-08T11:23:09.472Z,20.69
2017-06-08T11:24:10.209Z,20.74
2017-06-08T11:25:11.000Z,20.72
2017-06-08T11:26:11.988Z,20.78
2017-06-08T11:27:12.724Z,20.81
2017-06-08T11:28:13.460Z,20.69
2017-06-08T11:29:14.193Z,20.58
2017-06-08T11:30:14.928Z,20.62
2017-06-08T11:31:15.968Z,20.72
2017-06-08T11:32:16.701Z,20.78
2017-06-08T11:33:17.459Z,20.77
2017-06-08T11:34:18.195Z,20.82
2017-06-08T11:35:18.930Z,20.88
2017-06-08T11:36:19.917Z,21.05
2017-06-08T11:37:20.680Z,21.00
2017-06-08T11:38:21.441Z,20.84
2017-06-08T11:39:22.177Z,20.81
2017-06-08T11:40:22.913Z,20.80
2017-06-08T11:41:23.898Z,21.02
2017-06-08T11:42:24.635Z,20.96
2017-06-08T11:43:25.367Z,21.14
2017-06-08T11:44:26.102Z,21.09
2017-06-08T11:45:26.837Z,21.24
2017-06-08T11:46:27.825Z,21.30
2017-06-08T11:47:28.559Z,21.21
2017-06-08T11:48:29.294Z,21.29
2017-06-08T11:49:30.029Z,21.30
2017-06-08T11:50:30.769Z,21.36
2017-06-08T11:51:31.752Z,21.25
2017-06-08T11:52:32.487Z,21.11
2017-06-08T11:53:33.220Z,20.81
2017-06-08T11:54:33.956Z,20.84
2017-06-08T11:55:34.691Z,21.05
2017-06-08T11:56:35.677Z,21.12
2017-06-08T11:57:36.413Z,21.11
2017-06-08T11:58:37.146Z,21.27
2017-06-08T11:59:37.882Z,21.45
2017-06-08T12:00:38.617Z,21.66
2017-06-08T12:01:39.651Z,21.51
2017-06-08T12:02:40.382Z,21.50
2017-06-08T12:03:41.117Z,21.42
2017-06-08T12:04:41.893Z,21.29
2017-06-08T12:05:42.630Z,21.51
2017-06-08T12:06:43.617Z,21.61
2017-06-08T12:07:44.352Z,21.72
2017-06-08T12:08:45.085Z,21.83
2017-06-08T12:09:45.823Z,21.80
2017-06-08T12:10:46.557Z,21.73
2017-06-08T12:11:47.539Z,21.73
2017-06-08T12:12:48.274Z,21.80
2017-06-08T12:13:49.035Z,21.64
2017-06-08T12:14:49.771Z,21.66
2017-06-08T12:15:50.509Z,21.73
2017-06-08T12:16:51.494Z,21.66
2017-06-08T12:17:52.231Z,21.89
2017-06-08T12:18:52.991Z,21.87
2017-06-08T12:19:53.726Z,21.82
2017-06-08T12:20:54.484Z,21.92
2017-06-08T12:21:55.467Z,21.93
2017-06-08T12:22:56.204Z,22.08
2017-06-08T12:23:56.943Z,22.10
2017-06-08T12:24:57.677Z,22.30
2017-06-08T12:25:58.412Z,22.44
2017-06-08T12:26:59.401Z,22.45
2017-06-08T12:28:00.144Z,22.48
2017-06-08T12:29:00.905Z,22.63
2017-06-08T12:30:01.650Z,22.91
2017-06-08T12:31:02.391Z,23.06
2017-06-08T12:32:03.384Z,23.03
2017-06-08T12:33:04.122Z,23.06
2017-06-08T12:34:04.864Z,22.96
2017-06-08T12:35:05.606Z,23.12
2017-06-08T12:36:06.345Z,23.13
2017-06-08T12:37:07.337Z,23.27
2017-06-08T12:38:08.082Z,23.31
2017-06-08T12:39:08.825Z,23.37
2017-06-08T12:40:09.589Z,23.40
2017-06-08T12:41:10.330Z,23.43
2017-06-08T12:42:11.324Z,23.37
2017-06-08T12:43:12.067Z,23.24
2017-06-08T12:44:12.810Z,23.21
2017-06-08T12:45:13.551Z,23.25
2017-06-08T12:46:14.293Z,23.08
2017-06-08T12:47:15.283Z,23.21
2017-06-08T12:48:16.054Z,23.51
2017-06-08T12:49:16.792Z,23.77
2017-06-08T12:50:17.534Z,24.28
2017-06-08T12:51:18.273Z,24.51
2017-06-08T12:52:19.266Z,24.74
2017-06-08T12:53:20.006Z,24.88
2017-06-08T12:54:20.745Z,24.63
2017-06-08T12:55:21.488Z,24.74
2017-06-08T12:56:22.235Z,24.84
2017-06-08T12:57:23.274Z,24.77
2017-06-08T12:58:24.040Z,24.60
2017-06-08T12:59:24.782Z,24.45
2017-06-08T13:00:25.525Z,24.70
2017-06-08T13:01:26.267Z,25.13
2017-06-08T13:02:27.258Z,24.95
2017-06-08T13:03:28.003Z,25.16